createdAt,value
2018-12-12T00:02:15.620Z,7.10
2018-12-12T00:04:44.058Z,8.88
2018-12-12T00:07:12.650Z,7.50
2018-12-12T00:09:41.022Z,7.72
2018-12-12T00:12:09.392Z,7.55
2018-12-12T00:14:37.728Z,7.28
2018-12-12T00:17:06.123Z,7.03
2018-12-12T00:19:34.503Z,6.87
2018-12-12T00:22:02.870Z,7.85
2018-12-12T00:24:31.263Z,6.83
2018-12-12T00:26:59.679Z,6.85
2018-12-12T00:29:28.063Z,6.60
2018-12-12T00:31:56.541Z,6.15
2018-12-12T00:34:24.849Z,7.70
2018-12-12T00:36:57.598Z,6.90
2018-12-12T00:39:25.938Z,6.80
2018-12-12T00:41:54.492Z,7.78
2018-12-12T00:44:22.819Z,7.37
2018-12-12T00:46:51.969Z,6.72
2018-12-12T00:49:20.417Z,7.08
2018-12-12T00:51:49.127Z,6.83
2018-12-12T00:54:17.621Z,7.33
2018-12-12T00:56:45.995Z,8.10
2018-12-12T00:59:14.327Z,7.70
2018-12-12T01:01:42.690Z,7.45
2018-12-12T01:04:11.072Z,8.50
2018-12-12T01:06:39.504Z,7.15
2018-12-12T01:09:08.237Z,8.55
2018-12-12T01:11:41.882Z,7.85
2018-12-12T01:14:10.229Z,7.37
2018-12-12T01:16:38.698Z,8.68
2018-12-12T01:19:07.072Z,8.63
2018-12-12T01:21:36.008Z,9.50
2018-12-12T01:24:04.460Z,9.20
2018-12-12T01:26:32.824Z,8.63
2018-12-12T01:29:01.395Z,8.25
2018-12-12T01:31:29.754Z,9.43
2018-12-12T01:33:58.150Z,8.15
2018-12-12T01:36:26.583Z,9.28
2018-12-12T01:38:54.927Z,8.40
2018-12-12T01:41:23.330Z,8.18
2018-12-12T01:43:51.812Z,9.83
2018-12-12T01:46:20.266Z,9.30
2018-12-12T01:48:48.617Z,9.20
2018-12-12T01:51:17.022Z,8.98
2018-12-12T01:53:47.392Z,9.38
2018-12-12T01:56:15.869Z,9.45
2018-12-12T01:58:44.255Z,9.55
2018-12-12T02:01:12.832Z,9.43
2018-12-12T02:03:41.223Z,10.78
2018-12-12T02:06:09.629Z,9.78
2018-12-12T02:08:37.992Z,9.25
2018-12-12T02:11:06.408Z,9.88
2018-12-12T02:13:35.807Z,8.63
2018-12-12T02:16:06.147Z,8.40
2018-12-12T02:18:35.920Z,9.33
2018-12-12T02:21:04.310Z,8.55
2018-12-12T02:23:32.692Z,9.28
2018-12-12T02:26:01.067Z,8.65
2018-12-12T02:28:29.475Z,9.10
2018-12-12T02:30:57.893Z,8.83
2018-12-12T02:33:26.394Z,9.70
2018-12-12T02:35:54.840Z,10.30
2018-12-12T02:38:23.325Z,10.18
2018-12-12T02:40:51.674Z,9.03
2018-12-12T02:43:20.080Z,9.70
2018-12-12T02:45:49.088Z,10.28
2018-12-12T02:48:17.548Z,10.78
2018-12-12T02:50:45.901Z,10.70
2018-12-12T02:53:14.280Z,9.73
2018-12-12T02:55:42.599Z,9.45
2018-12-12T02:58:11.007Z,8.95
2018-12-12T03:00:39.356Z,10.75
2018-12-12T03:03:07.813Z,9.38
2018-12-12T03:05:36.206Z,9.55
2018-12-12T03:08:04.689Z,9.55
2018-12-12T03:10:33.175Z,8.10
2018-12-12T03:13:01.536Z,9.93
2018-12-12T03:15:30.541Z,9.63
2018-12-12T03:17:58.946Z,9.20
2018-12-12T03:20:27.364Z,9.45
2018-12-12T03:22:55.741Z,9.88
2018-12-12T03:25:24.273Z,8.85
2018-12-12T03:27:52.735Z,9.48
2018-12-12T03:30:21.120Z,9.78
2018-12-12T03:32:49.616Z,8.43
2018-12-12T03:35:18.585Z,9.15
2018-12-12T03:37:47.063Z,8.85
2018-12-12T03:40:16.652Z,9.45
2018-12-12T03:42:45.440Z,9.45
2018-12-12T03:45:13.948Z,9.68
2018-12-12T03:47:42.313Z,9.15
2018-12-12T03:50:10.703Z,10.58
2018-12-12T03:52:39.168Z,9.53
2018-12-12T03:55:07.743Z,9.98
2018-12-12T03:57:36.111Z,9.08
2018-12-12T04:00:05.296Z,7.85
2018-12-12T04:02:33.653Z,6.85
2018-12-12T04:05:01.957Z,6.87
2018-12-12T04:07:30.324Z,5.67
2018-12-12T04:09:58.707Z,5.62
2018-12-12T04:12:27.121Z,4.40
2018-12-12T04:14:55.543Z,4.00
2018-12-12T04:17:23.884Z,3.72
2018-12-12T04:19:52.340Z,5.20
2018-12-12T04:22:21.117Z,2.58
2018-12-12T04:24:49.780Z,2.90
2018-12-12T04:27:18.202Z,2.60
2018-12-12T04:29:47.069Z,2.60
2018-12-12T04:32:15.416Z,2.35
2018-12-12T04:34:43.858Z,3.05
2018-12-12T04:37:12.303Z,2.58
2018-12-12T04:39:40.651Z,2.70
2018-12-12T04:42:09.104Z,3.25
2018-12-12T04:44:37.493Z,3.05
2018-12-12T04:47:05.820Z,3.55
2018-12-12T04:49:34.221Z,3.47
2018-12-12T04:52:02.580Z,4.30
2018-12-12T04:54:30.941Z,4.70
2018-12-12T04:56:59.345Z,4.35
2018-12-12T04:59:27.822Z,3.98
2018-12-12T05:01:56.284Z,4.33
2018-12-12T05:04:24.672Z,3.62
2018-12-12T05:06:53.147Z,4.17
2018-12-12T05:09:21.655Z,2.80
2018-12-12T05:11:50.020Z,2.98
2018-12-12T05:14:18.369Z,2.55
2018-12-12T05:16:46.706Z,2.10
2018-12-12T05:19:15.090Z,2.15
2018-12-12T05:21:43.582Z,2.55
2018-12-12T05:24:11.914Z,2.27
2018-12-12T05:26:40.291Z,1.90
2018-12-12T05:29:08.729Z,2.00
2018-12-12T05:31:37.145Z,1.70
2018-12-12T05:34:05.485Z,1.90
2018-12-12T05:36:33.883Z,1.37
2018-12-12T05:39:02.265Z,2.02
2018-12-12T05:41:30.626Z,1.80
2018-12-12T05:43:59.052Z,1.85
2018-12-12T05:46:27.419Z,1.60
2018-12-12T05:48:55.777Z,2.02
2018-12-12T05:51:24.150Z,1.50
2018-12-12T05:53:52.598Z,1.92
2018-12-12T05:56:21.244Z,1.92
2018-12-12T05:58:49.875Z,2.30
2018-12-12T06:01:18.552Z,2.08
2018-12-12T06:03:47.289Z,2.20
2018-12-12T06:06:15.911Z,2.08
2018-12-12T06:08:44.554Z,2.27
2018-12-12T06:11:13.165Z,2.25
2018-12-12T06:13:41.617Z,2.30
2018-12-12T06:16:09.957Z,2.52
2018-12-12T06:18:38.552Z,2.30
2018-12-12T06:21:07.056Z,2.70
2018-12-12T06:23:35.387Z,2.10
2018-12-12T06:26:03.835Z,2.80
2018-12-12T06:28:32.204Z,2.80
2018-12-12T06:31:00.539Z,2.60
2018-12-12T06:33:28.945Z,2.55
2018-12-12T06:35:57.296Z,2.40
2018-12-12T06:38:25.639Z,2.70
2018-12-12T06:40:54.463Z,2.40
2018-12-12T06:43:22.944Z,3.08
2018-12-12T06:45:51.292Z,3.15
2018-12-12T06:48:19.679Z,2.58
2018-12-12T06:50:48.123Z,3.60
2018-12-12T06:53:16.631Z,3.00
2018-12-12T06:55:45.113Z,3.22
2018-12-12T06:58:13.460Z,2.98
2018-12-12T07:00:41.847Z,3.00
2018-12-12T07:03:10.204Z,3.62
2018-12-12T07:05:38.581Z,3.92
2018-12-12T07:08:07.066Z,4.50
2018-12-12T07:10:35.441Z,3.55
2018-12-12T07:13:03.764Z,3.87
2018-12-12T07:15:32.135Z,4.10
2018-12-12T07:18:00.473Z,3.55
2018-12-12T07:20:28.806Z,3.42
2018-12-12T07:22:57.319Z,2.60
2018-12-12T07:25:25.744Z,3.40
2018-12-12T07:27:54.075Z,3.22
2018-12-12T07:30:22.756Z,2.83
2018-12-12T07:32:51.213Z,3.30
2018-12-12T07:35:19.569Z,3.52
2018-12-12T07:37:48.280Z,3.05
2018-12-12T07:40:16.640Z,3.83
2018-12-12T07:42:45.104Z,3.35
2018-12-12T07:45:13.504Z,3.58
2018-12-12T07:47:41.814Z,3.25
2018-12-12T07:50:10.370Z,3.40
2018-12-12T07:52:38.718Z,3.37
2018-12-12T07:55:07.204Z,3.27
2018-12-12T07:57:35.626Z,3.27
2018-12-12T08:00:04.655Z,3.22
2018-12-12T08:02:33.052Z,3.87
2018-12-12T08:05:01.448Z,3.80
2018-12-12T08:07:29.849Z,3.87
2018-12-12T08:09:58.185Z,4.20
2018-12-12T08:12:26.544Z,4.15
2018-12-12T08:14:54.956Z,4.53
2018-12-12T08:17:23.342Z,4.47
2018-12-12T08:19:51.673Z,3.55
2018-12-12T08:22:20.075Z,4.30
2018-12-12T08:24:48.449Z,3.70
2018-12-12T08:27:16.809Z,4.28
2018-12-12T08:29:45.180Z,5.30
2018-12-12T08:32:13.511Z,4.90
2018-12-12T08:34:41.847Z,4.50
2018-12-12T08:37:10.229Z,4.05
2018-12-12T08:39:38.557Z,4.75
2018-12-12T08:42:06.967Z,4.37
2018-12-12T08:44:35.328Z,3.77
2018-12-12T08:47:03.647Z,4.50
2018-12-12T08:49:31.980Z,4.67
2018-12-12T08:52:00.477Z,4.42
2018-12-12T08:54:28.833Z,4.20
2018-12-12T08:56:57.528Z,4.62
2018-12-12T08:59:25.864Z,4.97
2018-12-12T09:01:54.325Z,5.00
2018-12-12T09:04:22.796Z,4.28
2018-12-12T09:06:51.254Z,4.40
2018-12-12T09:09:19.706Z,5.50
2018-12-12T09:11:48.064Z,4.67
2018-12-12T09:14:16.428Z,4.35
2018-12-12T09:16:44.811Z,4.95
2018-12-12T09:19:13.215Z,4.50
2018-12-12T09:21:41.581Z,4.65
2018-12-12T09:24:09.941Z,5.37
2018-12-12T09:26:38.295Z,6.50
2018-12-12T09:29:06.647Z,4.70
2018-12-12T09:31:35.010Z,4.95
2018-12-12T09:34:03.467Z,4.62
2018-12-12T09:36:31.805Z,4.62
2018-12-12T09:39:00.208Z,6.33
2018-12-12T09:41:28.536Z,5.00
2018-12-12T09:43:56.892Z,4.90
2018-12-12T09:46:25.224Z,5.40
2018-12-12T09:48:53.544Z,4.47
2018-12-12T09:51:21.969Z,4.90
2018-12-12T09:53:50.403Z,4.35
2018-12-12T09:56:18.860Z,5.30
2018-12-12T09:58:47.189Z,5.10
2018-12-12T10:01:15.535Z,5.53
2018-12-12T10:03:44.167Z,5.90
2018-12-12T10:06:12.538Z,5.53
2018-12-12T10:08:40.864Z,5.00
2018-12-12T10:11:09.219Z,5.72
2018-12-12T10:13:37.572Z,6.05
2018-12-12T10:16:06.002Z,6.00
2018-12-12T10:18:34.373Z,6.92
2018-12-12T10:21:02.668Z,5.90
2018-12-12T10:23:31.044Z,6.78
2018-12-12T10:25:59.499Z,6.60
2018-12-12T10:28:27.861Z,6.05
2018-12-12T10:30:56.176Z,6.53
2018-12-12T10:33:24.639Z,6.30
2018-12-12T10:35:53.017Z,6.97
2018-12-12T10:38:21.456Z,6.58
2018-12-12T10:40:49.787Z,5.62
2018-12-12T10:43:18.152Z,6.15
2018-12-12T10:45:46.645Z,6.60
2018-12-12T10:48:14.986Z,5.17
2018-12-12T10:50:43.371Z,6.00
2018-12-12T10:53:11.729Z,7.15
2018-12-12T10:55:40.139Z,5.42
2018-12-12T10:58:08.556Z,6.12
2018-12-12T11:00:40.062Z,6.33
2018-12-12T11:03:22.552Z,6.10
2018-12-12T11:05:50.864Z,6.35
2018-12-12T11:08:19.449Z,6.15
2018-12-12T11:10:47.844Z,7.00
2018-12-12T11:13:16.180Z,6.70
2018-12-12T11:15:44.548Z,6.10
2018-12-12T11:18:12.904Z,6.60
2018-12-12T11:20:41.250Z,7.12
2018-12-12T11:23:09.601Z,6.17
2018-12-12T11:25:37.926Z,6.47
2018-12-12T11:28:06.243Z,6.90
2018-12-12T11:30:34.601Z,7.25
2018-12-12T11:33:02.952Z,6.90
2018-12-12T11:35:31.370Z,5.90
2018-12-12T11:37:59.752Z,7.35
2018-12-12T11:40:28.127Z,5.97
2018-12-12T11:42:56.468Z,7.35
2018-12-12T11:45:24.843Z,6.08
2018-12-12T11:47:53.289Z,5.60
2018-12-12T11:50:21.744Z,6.37
2018-12-12T11:52:50.086Z,5.90
2018-12-12T11:55:18.516Z,5.80
2018-12-12T11:57:47.164Z,6.85
2018-12-12T12:00:15.479Z,5.33
2018-12-12T12:02:43.868Z,6.10
2018-12-12T12:05:12.196Z,6.70
2018-12-12T12:07:40.553Z,6.97
2018-12-12T12:10:10.391Z,5.47
2018-12-12T12:12:38.743Z,6.25
2018-12-12T12:15:07.932Z,6.37
2018-12-12T12:17:36.328Z,5.60
2018-12-12T12:20:05.202Z,5.22
2018-12-12T12:22:33.519Z,5.28
2018-12-12T12:25:01.903Z,6.30
2018-12-12T12:27:30.332Z,5.37
2018-12-12T12:29:58.721Z,5.87
2018-12-12T12:32:27.208Z,4.87
2018-12-12T12:34:56.387Z,4.60
2018-12-12T12:37:24.840Z,4.17
2018-12-12T12:39:53.209Z,4.42
2018-12-12T12:42:21.591Z,4.62
2018-12-12T12:44:49.938Z,5.87
2018-12-12T12:47:18.387Z,4.80
2018-12-12T12:49:46.846Z,4.85
2018-12-12T12:52:15.190Z,4.45
2018-12-12T12:54:43.631Z,4.85
2018-12-12T12:57:11.985Z,4.97
2018-12-12T12:59:40.377Z,5.03
2018-12-12T13:02:08.816Z,4.95
2018-12-12T13:04:37.195Z,4.90
2018-12-12T13:07:05.571Z,4.10
2018-12-12T13:09:33.931Z,5.30
2018-12-12T13:12:02.418Z,5.22
2018-12-12T13:14:31.049Z,4.60
2018-12-12T13:16:59.408Z,4.37
2018-12-12T13:19:27.768Z,4.83
2018-12-12T13:21:56.112Z,5.08
2018-12-12T13:24:24.514Z,4.53
2018-12-12T13:26:53.658Z,4.55
2018-12-12T13:29:22.370Z,5.67
2018-12-12T13:31:50.717Z,6.03
2018-12-12T13:34:19.038Z,5.45
2018-12-12T13:36:47.433Z,5.55
2018-12-12T13:39:15.837Z,4.70
2018-12-12T13:41:44.185Z,5.50
2018-12-12T13:44:12.517Z,8.90
2018-12-12T13:46:40.949Z,5.28
2018-12-12T13:49:09.382Z,4.83
2018-12-12T13:51:37.700Z,5.47
2018-12-12T13:54:06.112Z,4.95
2018-12-12T13:56:34.422Z,4.97
2018-12-12T13:59:02.891Z,4.25
2018-12-12T14:01:31.265Z,5.00
2018-12-12T14:03:59.631Z,4.55
2018-12-12T14:06:28.107Z,4.22
2018-12-12T14:08:56.461Z,4.60
2018-12-12T14:11:24.781Z,4.78
2018-12-12T14:13:53.156Z,3.60
2018-12-12T14:16:21.509Z,4.10
2018-12-12T14:18:49.899Z,4.67
2018-12-12T14:21:18.217Z,3.98
2018-12-12T14:23:46.576Z,4.85
2018-12-12T14:26:14.924Z,3.80
2018-12-12T14:28:43.316Z,4.25
2018-12-12T14:31:11.675Z,3.50
2018-12-12T14:33:40.070Z,3.83
2018-12-12T14:36:08.566Z,3.95
2018-12-12T14:38:36.917Z,4.40
2018-12-12T14:41:05.425Z,4.92
2018-12-12T14:43:33.836Z,4.75
2018-12-12T14:46:02.192Z,5.10
2018-12-12T14:48:31.236Z,4.30
2018-12-12T14:50:59.601Z,4.65
2018-12-12T14:53:27.963Z,4.40
2018-12-12T14:55:56.429Z,5.08
2018-12-12T14:58:24.838Z,4.62
2018-12-12T15:00:53.193Z,4.37
2018-12-12T15:03:21.540Z,4.87
2018-12-12T15:05:49.860Z,5.30
2018-12-12T15:08:18.249Z,4.78
2018-12-12T15:10:46.745Z,4.95
2018-12-12T15:13:15.089Z,5.10
2018-12-12T15:15:43.440Z,5.62
2018-12-12T15:18:11.779Z,5.65
2018-12-12T15:20:40.120Z,4.45
2018-12-12T15:23:08.492Z,5.08
2018-12-12T15:25:36.812Z,4.90
2018-12-12T15:28:05.173Z,4.95
2018-12-12T15:30:33.505Z,4.62
2018-12-12T15:33:01.884Z,6.22
2018-12-12T15:35:30.241Z,5.25
2018-12-12T15:37:58.576Z,6.90
2018-12-12T15:40:26.938Z,6.85
2018-12-12T15:42:55.353Z,5.53
2018-12-12T15:45:23.760Z,7.65
2018-12-12T15:47:52.136Z,13.43
2018-12-12T15:50:20.507Z,7.00
2018-12-12T15:52:48.852Z,6.33
2018-12-12T15:55:17.288Z,5.83
2018-12-12T15:57:45.710Z,5.55
2018-12-12T16:00:15.762Z,5.78
2018-12-12T16:02:44.493Z,5.25
2018-12-12T16:05:13.003Z,5.62
2018-12-12T16:07:41.454Z,5.45
2018-12-12T16:10:09.859Z,5.35
2018-12-12T16:12:38.170Z,5.97
2018-12-12T16:15:06.627Z,4.95
2018-12-12T16:17:35.080Z,4.70
2018-12-12T16:20:04.121Z,5.37
2018-12-12T16:22:32.488Z,5.12
2018-12-12T16:25:01.152Z,4.50
2018-12-12T16:27:29.716Z,5.58
2018-12-12T16:29:58.107Z,4.40
2018-12-12T16:32:27.111Z,4.08
2018-12-12T16:34:55.914Z,4.15
2018-12-12T16:37:24.416Z,3.55
2018-12-12T16:39:52.863Z,4.15
2018-12-12T16:42:21.264Z,3.70
2018-12-12T16:44:49.662Z,3.65
2018-12-12T16:47:18.037Z,5.20
2018-12-12T16:49:46.640Z,4.72
2018-12-12T16:52:15.600Z,5.45
2018-12-12T16:54:44.148Z,5.35
2018-12-12T16:57:12.563Z,5.60
2018-12-12T16:59:41.045Z,5.12
2018-12-12T17:02:10.003Z,5.12
2018-12-12T17:04:38.377Z,5.55
2018-12-12T17:07:06.840Z,5.17
2018-12-12T17:09:35.172Z,5.83
2018-12-12T17:12:03.517Z,5.70
2018-12-12T17:14:31.921Z,5.55
2018-12-12T17:17:00.266Z,5.25
2018-12-12T17:19:28.672Z,4.87
2018-12-12T17:21:57.068Z,4.40
2018-12-12T17:24:25.457Z,4.78
2018-12-12T17:26:53.819Z,4.72
2018-12-12T17:29:22.121Z,4.80
2018-12-12T17:31:50.454Z,4.30
2018-12-12T17:34:18.822Z,4.17
2018-12-12T17:36:47.295Z,4.20
2018-12-12T17:39:15.657Z,4.15
2018-12-12T17:41:44.094Z,4.00
2018-12-12T17:44:12.476Z,3.33
2018-12-12T17:46:40.912Z,3.65
2018-12-12T17:49:09.336Z,4.30
2018-12-12T17:51:37.709Z,4.12
2018-12-12T17:54:06.136Z,7.60
2018-12-12T17:56:34.499Z,5.05
2018-12-12T17:59:02.852Z,5.15
2018-12-12T18:01:31.182Z,4.50
2018-12-12T18:03:59.715Z,4.70
2018-12-12T18:06:28.133Z,5.25
2018-12-12T18:08:56.600Z,4.42
2018-12-12T18:11:24.976Z,5.60
2018-12-12T18:13:53.404Z,4.83
2018-12-12T18:16:21.787Z,4.85
2018-12-12T18:18:50.269Z,4.65
2018-12-12T18:21:18.637Z,5.40
2018-12-12T18:23:47.031Z,4.60
2018-12-12T18:26:15.465Z,4.62
2018-12-12T18:28:43.840Z,6.65
2018-12-12T18:31:12.319Z,5.25
2018-12-12T18:33:40.698Z,5.10
2018-12-12T18:36:09.161Z,5.20
2018-12-12T18:38:37.600Z,5.35
2018-12-12T18:41:06.029Z,4.90
2018-12-12T18:43:34.410Z,5.30
2018-12-12T18:46:02.784Z,4.87
2018-12-12T18:48:31.185Z,4.97
2018-12-12T18:50:59.560Z,5.50
2018-12-12T18:53:27.939Z,5.92
2018-12-12T18:55:56.393Z,5.42
2018-12-12T18:58:24.740Z,4.70
2018-12-12T19:00:53.099Z,5.12
2018-12-12T19:03:21.531Z,5.20
2018-12-12T19:05:49.905Z,5.62
2018-12-12T19:08:18.217Z,5.47
2018-12-12T19:10:46.598Z,5.00
2018-12-12T19:13:15.025Z,4.95
2018-12-12T19:15:43.339Z,5.60
2018-12-12T19:18:11.851Z,5.33
2018-12-12T19:20:40.186Z,5.15
2018-12-12T19:23:08.597Z,5.70
2018-12-12T19:25:37.046Z,4.90
2018-12-12T19:28:05.534Z,5.10
2018-12-12T19:30:33.912Z,4.75
2018-12-12T19:33:02.357Z,4.78
2018-12-12T19:35:34.741Z,4.30
2018-12-12T19:38:01.101Z,5.65
2018-12-12T19:40:29.478Z,4.75
2018-12-12T19:42:57.829Z,4.92
2018-12-12T19:45:26.218Z,4.72
2018-12-12T19:47:54.669Z,5.67
2018-12-12T19:50:23.271Z,5.70
2018-12-12T19:52:51.841Z,5.67
2018-12-12T19:55:20.239Z,5.40
2018-12-12T19:57:48.853Z,5.53
2018-12-12T20:00:17.267Z,5.25
2018-12-12T20:02:45.652Z,6.22
2018-12-12T20:05:14.046Z,5.42
2018-12-12T20:07:42.479Z,5.05
2018-12-12T20:10:10.905Z,5.08
2018-12-12T20:12:39.296Z,5.47
2018-12-12T20:15:10.119Z,4.80
2018-12-12T20:17:38.480Z,5.47
2018-12-12T20:20:07.004Z,5.92
2018-12-12T20:22:35.379Z,5.37
2018-12-12T20:25:04.092Z,5.75
2018-12-12T20:27:32.465Z,5.30
2018-12-12T20:30:00.877Z,5.62
2018-12-12T20:32:29.317Z,4.65
2018-12-12T20:34:57.692Z,5.85
2018-12-12T20:37:26.091Z,4.85
2018-12-12T20:39:54.491Z,5.30
2018-12-12T20:42:22.892Z,5.50
2018-12-12T20:44:51.264Z,5.28
2018-12-12T20:47:19.792Z,5.25
2018-12-12T20:49:48.146Z,6.30
2018-12-12T20:52:16.533Z,5.28
2018-12-12T20:54:44.929Z,5.30
2018-12-12T20:57:13.383Z,5.58
2018-12-12T20:59:45.762Z,5.83
2018-12-12T21:02:12.297Z,5.20
2018-12-12T21:04:40.667Z,5.95
2018-12-12T21:07:09.068Z,6.20
2018-12-12T21:09:37.409Z,5.20
2018-12-12T21:12:05.756Z,5.62
2018-12-12T21:14:34.236Z,5.55
2018-12-12T21:17:02.589Z,4.95
2018-12-12T21:19:30.957Z,5.22
2018-12-12T21:21:59.376Z,6.40
2018-12-12T21:24:27.840Z,6.05
2018-12-12T21:26:56.201Z,4.78
2018-12-12T21:29:24.620Z,5.95
2018-12-12T21:31:53.277Z,6.30
2018-12-12T21:34:21.651Z,5.78
2018-12-12T21:36:50.005Z,6.25
2018-12-12T21:39:18.386Z,5.78
2018-12-12T21:41:46.946Z,5.55
2018-12-12T21:44:15.335Z,5.67
2018-12-12T21:46:43.760Z,5.70
2018-12-12T21:49:12.140Z,5.20
2018-12-12T21:51:40.571Z,5.12
2018-12-12T21:54:08.984Z,5.85
2018-12-12T21:56:37.433Z,5.70
2018-12-12T21:59:05.797Z,6.10
2018-12-12T22:01:34.198Z,5.75
2018-12-12T22:04:02.605Z,5.40
2018-12-12T22:06:31.063Z,5.60
2018-12-12T22:08:59.438Z,6.03
2018-12-12T22:11:27.936Z,5.30
2018-12-12T22:13:56.467Z,5.78
2018-12-12T22:16:24.828Z,5.95
2018-12-12T22:18:53.219Z,5.50
2018-12-12T22:21:21.590Z,6.80
2018-12-12T22:23:50.242Z,6.95
2018-12-12T22:26:18.634Z,5.53
2018-12-12T22:28:47.049Z,6.87
2018-12-12T22:31:15.418Z,6.40
2018-12-12T22:33:43.777Z,5.92
2018-12-12T22:36:14.262Z,5.62
2018-12-12T22:38:42.553Z,6.70
2018-12-12T22:41:10.934Z,5.95
2018-12-12T22:43:39.329Z,5.75
2018-12-12T22:46:07.882Z,6.05
2018-12-12T22:48:36.273Z,6.03
2018-12-12T22:51:04.791Z,5.95
2018-12-12T22:53:33.265Z,6.28
2018-12-12T22:56:01.620Z,6.60
2018-12-12T22:58:30.018Z,6.12
2018-12-12T23:01:07.410Z,6.80
2018-12-12T23:03:36.117Z,6.28
2018-12-12T23:06:04.629Z,6.85
2018-12-12T23:08:33.044Z,6.42
2018-12-12T23:11:01.468Z,7.92
2018-12-12T23:13:29.866Z,6.83
2018-12-12T23:15:58.244Z,6.53
2018-12-12T23:18:26.623Z,6.78
2018-12-12T23:20:55.020Z,6.20
2018-12-12T23:23:23.449Z,6.58
2018-12-12T23:25:51.833Z,6.95
2018-12-12T23:28:20.213Z,8.30
2018-12-12T23:30:48.592Z,6.78
2018-12-12T23:33:16.941Z,7.45
2018-12-12T23:35:45.295Z,7.15
2018-12-12T23:38:13.632Z,7.97
2018-12-12T23:40:42.022Z,6.50
2018-12-12T23:43:10.398Z,6.83
2018-12-12T23:45:38.896Z,6.55
2018-12-12T23:48:07.272Z,7.72
2018-12-12T23:50:35.606Z,7.17
2018-12-12T23:53:04.151Z,6.58
2018-12-12T23:55:32.469Z,7.95
2018-12-12T23:58:00.848Z,8.00
